createdAt,value
2023-02-01T00:00:44.789Z,5.00
2023-02-01T00:01:46.644Z,5.00
2023-02-01T00:02:48.530Z,4.90
2023-02-01T00:03:50.333Z,4.90
2023-02-01T00:04:52.085Z,4.90
2023-02-01T00:06:01.066Z,4.90
2023-02-01T00:07:02.869Z,4.90
2023-02-01T00:08:04.938Z,4.90
2023-02-01T00:09:06.704Z,4.90
2023-02-01T00:10:09.272Z,4.90
2023-02-01T00:11:13.054Z,4.90
2023-02-01T00:12:14.782Z,4.90
2023-02-01T00:13:16.522Z,4.90
2023-02-01T00:14:18.340Z,5.00
2023-02-01T00:15:20.558Z,5.00
2023-02-01T00:16:25.370Z,5.00
2023-02-01T00:17:27.114Z,5.00
2023-02-01T00:18:28.882Z,5.00
2023-02-01T00:19:30.620Z,5.00
2023-02-01T00:20:32.340Z,5.00
2023-02-01T00:21:34.615Z,5.00
2023-02-01T00:22:36.349Z,5.00
2023-02-01T00:23:39.670Z,5.00
2023-02-01T00:24:41.530Z,5.00
2023-02-01T00:25:43.286Z,5.00
2023-02-01T00:26:46.644Z,5.00
2023-02-01T00:27:51.658Z,5.00
2023-02-01T00:28:53.837Z,5.00
2023-02-01T00:29:56.610Z,5.00
2023-02-01T00:31:01.380Z,5.00
2023-02-01T00:32:03.267Z,5.00
2023-02-01T00:33:05.048Z,4.90
2023-02-01T00:34:09.663Z,5.00
2023-02-01T00:35:11.390Z,4.90
2023-02-01T00:36:13.328Z,4.90
2023-02-01T00:37:15.087Z,5.00
2023-02-01T00:38:16.834Z,5.00
2023-02-01T00:39:18.620Z,5.00
2023-02-01T00:40:20.655Z,5.00
2023-02-01T00:41:23.715Z,5.00
2023-02-01T00:42:25.461Z,5.00
2023-02-01T00:43:27.187Z,5.00
2023-02-01T00:44:28.998Z,5.10
2023-02-01T00:45:30.742Z,5.10
2023-02-01T00:46:32.514Z,5.00
2023-02-01T00:47:34.489Z,5.00
2023-02-01T00:48:36.247Z,5.00
2023-02-01T00:49:37.989Z,5.00
2023-02-01T00:50:43.835Z,5.00
2023-02-01T00:51:45.556Z,5.00
2023-02-01T00:52:47.316Z,5.00
2023-02-01T00:53:49.795Z,5.00
2023-02-01T00:54:51.522Z,5.00
2023-02-01T00:55:53.315Z,5.00
2023-02-01T00:56:55.052Z,5.00
2023-02-01T00:57:56.849Z,5.00
2023-02-01T00:58:58.674Z,5.00
2023-02-01T01:00:00.471Z,5.00
2023-02-01T01:01:08.004Z,5.00
2023-02-01T01:02:11.330Z,5.00
2023-02-01T01:03:19.020Z,5.00
2023-02-01T01:04:20.793Z,5.00
2023-02-01T01:05:22.614Z,5.00
2023-02-01T01:06:27.828Z,5.00
2023-02-01T01:07:29.810Z,5.00
2023-02-01T01:08:32.011Z,5.00
2023-02-01T01:09:33.816Z,5.00
2023-02-01T01:10:35.761Z,5.00
2023-02-01T01:11:38.853Z,5.00
2023-02-01T01:12:41.772Z,5.00
2023-02-01T01:13:44.052Z,5.00
2023-02-01T01:14:45.819Z,5.00
2023-02-01T01:15:47.664Z,4.90
2023-02-01T01:16:51.496Z,5.00
2023-02-01T01:17:53.291Z,5.00
2023-02-01T01:18:55.780Z,5.00
2023-02-01T01:19:59.843Z,5.00
2023-02-01T01:21:02.624Z,5.00
2023-02-01T01:22:04.409Z,5.00
2023-02-01T01:23:07.248Z,5.00
2023-02-01T01:24:09.000Z,5.00
2023-02-01T01:25:10.767Z,5.00
2023-02-01T01:26:27.474Z,5.00
2023-02-01T01:27:29.242Z,5.00
2023-02-01T01:28:30.992Z,5.00
2023-02-01T01:29:32.737Z,5.00
2023-02-01T01:30:35.720Z,5.00
2023-02-01T01:31:37.517Z,5.00
2023-02-01T01:32:39.569Z,5.00
2023-02-01T01:33:41.396Z,5.00
2023-02-01T01:34:43.155Z,5.00
2023-02-01T01:35:44.940Z,4.90
2023-02-01T01:36:46.681Z,4.90
2023-02-01T01:37:48.491Z,4.90
2023-02-01T01:38:50.367Z,4.90
2023-02-01T01:39:52.147Z,4.90
2023-02-01T01:40:53.957Z,4.90
2023-02-01T01:41:55.696Z,4.90
2023-02-01T01:42:57.971Z,4.90
2023-02-01T01:44:02.391Z,4.90
2023-02-01T01:45:11.707Z,4.90
2023-02-01T01:46:21.610Z,4.90
2023-02-01T01:47:23.660Z,4.90
2023-02-01T01:48:29.873Z,4.90
2023-02-01T01:49:31.621Z,4.80
2023-02-01T01:50:38.596Z,4.80
2023-02-01T01:51:47.399Z,4.80
2023-02-01T01:52:51.513Z,4.90
2023-02-01T01:54:22.497Z,4.90
2023-02-01T01:55:27.104Z,4.90
2023-02-01T01:56:31.086Z,4.90
2023-02-01T01:57:40.570Z,4.90
2023-02-01T01:58:42.801Z,4.90
2023-02-01T01:59:51.075Z,4.90
2023-02-01T02:00:54.119Z,4.90
2023-02-01T02:01:56.557Z,4.80
2023-02-01T02:03:04.398Z,4.90
2023-02-01T02:04:06.736Z,4.80
2023-02-01T02:05:09.978Z,4.80
2023-02-01T02:06:21.717Z,4.80
2023-02-01T02:07:29.489Z,4.80
2023-02-01T02:08:31.369Z,4.80
2023-02-01T02:09:33.186Z,4.90
2023-02-01T02:10:53.497Z,4.90
2023-02-01T02:11:55.273Z,4.90
2023-02-01T02:12:57.015Z,4.90
2023-02-01T02:13:59.374Z,4.90
2023-02-01T02:15:01.167Z,4.90
2023-02-01T02:16:18.663Z,4.90
2023-02-01T02:17:30.726Z,4.90
2023-02-01T02:18:58.894Z,4.90
2023-02-01T02:20:34.524Z,4.90
2023-02-01T02:22:12.632Z,5.00
2023-02-01T02:23:38.506Z,4.90
2023-02-01T02:24:49.443Z,4.90
2023-02-01T02:26:21.041Z,5.00
2023-02-01T02:27:49.154Z,5.00
2023-02-01T02:29:12.055Z,5.00
2023-02-01T02:30:41.884Z,5.00
2023-02-01T02:31:49.911Z,5.00
2023-02-01T02:33:17.509Z,5.00
2023-02-01T02:34:45.759Z,4.90
2023-02-01T02:36:15.854Z,4.90
2023-02-01T02:37:38.760Z,4.90
2023-02-01T02:39:17.541Z,4.90
2023-02-01T02:40:31.079Z,4.90
2023-02-01T02:42:10.429Z,4.90
2023-02-01T02:43:41.218Z,4.90
2023-02-01T02:45:10.499Z,4.90
2023-02-01T02:46:48.554Z,4.90
2023-02-01T02:47:55.049Z,4.90
2023-02-01T02:49:06.284Z,4.90
2023-02-01T02:50:44.073Z,4.90
2023-02-01T02:52:31.039Z,4.90
2023-02-01T02:54:04.393Z,4.90
2023-02-01T02:55:09.536Z,4.80
2023-02-01T02:56:31.924Z,4.90
2023-02-01T02:57:59.962Z,4.90
2023-02-01T02:59:23.102Z,4.90
2023-02-01T03:00:48.690Z,4.90
2023-02-01T03:02:09.495Z,4.90
2023-02-01T03:03:30.061Z,4.80
2023-02-01T03:04:31.877Z,4.80
2023-02-01T03:05:36.136Z,4.80
2023-02-01T03:06:39.794Z,4.80
2023-02-01T03:08:18.629Z,4.80
2023-02-01T03:09:37.776Z,4.80
2023-02-01T03:10:49.273Z,4.80
2023-02-01T03:12:17.307Z,4.80
2023-02-01T03:13:26.171Z,4.80
2023-02-01T03:14:30.523Z,4.80
2023-02-01T03:16:09.724Z,4.80
2023-02-01T03:17:23.897Z,4.80
2023-02-01T03:18:58.424Z,4.80
2023-02-01T03:20:03.343Z,4.80
2023-02-01T03:21:11.357Z,4.80
2023-02-01T03:22:16.530Z,4.80
2023-02-01T03:23:22.621Z,4.80
2023-02-01T03:24:39.672Z,4.80
2023-02-01T03:25:42.485Z,4.80
2023-02-01T03:26:54.780Z,4.80
2023-02-01T03:28:02.220Z,4.80
2023-02-01T03:29:09.607Z,4.80
2023-02-01T03:30:20.510Z,4.80
2023-02-01T03:31:23.584Z,4.80
2023-02-01T03:32:25.669Z,4.80
2023-02-01T03:33:31.115Z,4.80
2023-02-01T03:34:33.310Z,4.90
2023-02-01T03:36:02.687Z,4.90
2023-02-01T03:37:11.718Z,4.90
2023-02-01T03:38:34.499Z,4.90
2023-02-01T03:39:40.152Z,4.90
2023-02-01T03:40:46.251Z,4.90
2023-02-01T03:42:01.386Z,4.90
2023-02-01T03:43:06.014Z,4.90
2023-02-01T03:44:26.847Z,4.90
2023-02-01T03:45:35.413Z,4.90
2023-02-01T03:46:52.372Z,4.90
2023-02-01T03:47:58.044Z,4.90
2023-02-01T03:49:04.227Z,4.90
2023-02-01T03:50:10.549Z,4.90
2023-02-01T03:51:13.623Z,4.90
2023-02-01T03:52:21.474Z,4.90
2023-02-01T03:53:25.404Z,4.90
2023-02-01T03:54:31.531Z,4.90
2023-02-01T03:55:34.444Z,4.90
2023-02-01T03:56:39.165Z,4.90
2023-02-01T03:57:46.951Z,4.90
2023-02-01T03:58:59.772Z,4.90
2023-02-01T04:00:11.137Z,4.90
2023-02-01T04:01:12.954Z,4.90
2023-02-01T04:02:14.809Z,4.90
2023-02-01T04:03:16.535Z,4.90
2023-02-01T04:04:21.127Z,4.90
2023-02-01T04:05:23.441Z,4.90
2023-02-01T04:06:25.940Z,4.80
2023-02-01T04:07:27.736Z,4.90
2023-02-01T04:08:30.029Z,4.90
2023-02-01T04:09:31.775Z,4.90
2023-02-01T04:10:33.828Z,4.90
2023-02-01T04:11:35.599Z,4.90
2023-02-01T04:12:37.606Z,4.90
2023-02-01T04:13:39.373Z,4.90
2023-02-01T04:14:41.106Z,4.90
2023-02-01T04:15:42.877Z,4.90
2023-02-01T04:16:44.709Z,4.90
2023-02-01T04:17:46.475Z,4.90
2023-02-01T04:18:48.177Z,4.90
2023-02-01T04:19:49.928Z,4.90
2023-02-01T04:20:51.655Z,5.00
2023-02-01T04:21:53.465Z,5.00
2023-02-01T04:22:55.576Z,5.00
2023-02-01T04:23:57.451Z,5.00
2023-02-01T04:24:59.204Z,5.00
2023-02-01T04:26:02.715Z,5.00
2023-02-01T04:27:04.491Z,4.90
2023-02-01T04:28:07.786Z,4.90
2023-02-01T04:29:11.163Z,5.00
2023-02-01T04:30:13.537Z,5.00
2023-02-01T04:31:16.848Z,5.00
2023-02-01T04:32:20.796Z,5.00
2023-02-01T04:33:22.560Z,5.00
2023-02-01T04:34:25.749Z,4.90
2023-02-01T04:35:27.528Z,5.00
2023-02-01T04:36:29.246Z,5.00
2023-02-01T04:37:31.203Z,5.00
2023-02-01T04:38:33.285Z,5.00
2023-02-01T04:39:35.126Z,5.00
2023-02-01T04:40:38.725Z,5.00
2023-02-01T04:41:40.548Z,5.00
2023-02-01T04:42:42.331Z,5.00
2023-02-01T04:43:44.062Z,5.00
2023-02-01T04:44:45.796Z,5.00
2023-02-01T04:45:51.474Z,5.00
2023-02-01T04:46:53.397Z,4.90
2023-02-01T04:47:55.175Z,4.90
2023-02-01T04:48:57.014Z,5.00
2023-02-01T04:49:58.789Z,4.90
2023-02-01T04:51:00.530Z,5.00
2023-02-01T04:52:02.278Z,5.00
2023-02-01T04:53:04.085Z,4.90
2023-02-01T04:54:06.311Z,5.00
2023-02-01T04:55:08.797Z,5.00
2023-02-01T04:56:10.564Z,5.00
2023-02-01T04:57:14.317Z,5.00
2023-02-01T04:58:16.079Z,5.00
2023-02-01T04:59:17.839Z,5.00
2023-02-01T05:00:19.889Z,5.00
2023-02-01T05:01:21.700Z,5.00
2023-02-01T05:02:23.444Z,5.00
2023-02-01T05:03:25.286Z,5.00
2023-02-01T05:04:27.140Z,5.00
2023-02-01T05:05:29.535Z,4.90
2023-02-01T05:06:31.372Z,5.00
2023-02-01T05:07:33.196Z,5.00
2023-02-01T05:08:36.256Z,4.90
2023-02-01T05:09:38.967Z,5.00
2023-02-01T05:10:40.767Z,4.90
2023-02-01T05:12:01.553Z,4.90
2023-02-01T05:13:22.032Z,5.00
2023-02-01T05:14:23.786Z,5.00
2023-02-01T05:15:25.621Z,4.90
2023-02-01T05:16:27.843Z,4.90
2023-02-01T05:17:29.614Z,4.90
2023-02-01T05:18:31.343Z,4.90
2023-02-01T05:19:33.135Z,5.00
2023-02-01T05:20:34.895Z,5.00
2023-02-01T05:21:36.616Z,5.00
2023-02-01T05:22:38.552Z,4.90
2023-02-01T05:23:58.794Z,5.00
2023-02-01T05:25:00.539Z,5.00
2023-02-01T05:26:02.863Z,5.00
2023-02-01T05:27:04.647Z,5.00
2023-02-01T05:28:06.364Z,5.00
2023-02-01T05:29:09.811Z,5.00
2023-02-01T05:30:12.137Z,5.00
2023-02-01T05:31:14.193Z,5.00
2023-02-01T05:32:23.411Z,5.00
2023-02-01T05:33:25.269Z,5.10
2023-02-01T05:34:27.007Z,5.00
2023-02-01T05:35:28.822Z,5.00
2023-02-01T05:36:30.792Z,5.00
2023-02-01T05:37:32.609Z,5.00
2023-02-01T05:38:34.381Z,5.00
2023-02-01T05:39:36.144Z,5.00
2023-02-01T05:40:37.941Z,5.00
2023-02-01T05:41:39.750Z,5.00
2023-02-01T05:42:41.498Z,5.00
2023-02-01T05:43:43.365Z,5.00
2023-02-01T05:44:45.264Z,5.00
2023-02-01T05:45:47.042Z,5.00
2023-02-01T05:46:50.210Z,5.00
2023-02-01T05:47:52.062Z,5.00
2023-02-01T05:48:53.853Z,5.00
2023-02-01T05:49:55.635Z,4.90
2023-02-01T05:50:57.371Z,5.00
2023-02-01T05:52:00.518Z,4.90
2023-02-01T05:53:02.551Z,5.00
2023-02-01T05:54:04.294Z,5.00
2023-02-01T05:55:06.428Z,5.00
2023-02-01T05:56:08.579Z,5.00
2023-02-01T05:57:10.298Z,5.00
2023-02-01T05:58:13.238Z,5.00
2023-02-01T05:59:14.984Z,4.90
2023-02-01T06:00:17.241Z,5.00
2023-02-01T06:01:18.987Z,4.90
2023-02-01T06:02:21.449Z,4.90
2023-02-01T06:03:23.357Z,4.90
2023-02-01T06:04:25.243Z,5.00
2023-02-01T06:05:26.993Z,5.00
2023-02-01T06:06:28.779Z,5.00
2023-02-01T06:07:31.115Z,5.00
2023-02-01T06:08:32.959Z,5.00
2023-02-01T06:09:37.819Z,5.00
2023-02-01T06:10:39.633Z,5.00
2023-02-01T06:11:42.295Z,5.00
2023-02-01T06:12:45.785Z,5.00
2023-02-01T06:13:47.561Z,5.00
2023-02-01T06:14:49.349Z,5.00
2023-02-01T06:15:51.228Z,5.00
2023-02-01T06:16:52.989Z,5.00
2023-02-01T06:17:55.706Z,5.00
2023-02-01T06:18:57.468Z,5.00
2023-02-01T06:19:59.224Z,5.00
2023-02-01T06:21:01.735Z,5.00
2023-02-01T06:22:07.088Z,5.00
2023-02-01T06:23:08.905Z,5.00
2023-02-01T06:24:10.815Z,5.00
2023-02-01T06:25:12.783Z,5.00
2023-02-01T06:26:14.531Z,5.00
2023-02-01T06:27:16.376Z,5.00
2023-02-01T06:28:18.281Z,5.10
2023-02-01T06:29:20.005Z,5.00
2023-02-01T06:30:22.171Z,5.00
2023-02-01T06:31:24.533Z,5.00
2023-02-01T06:32:26.425Z,5.00
2023-02-01T06:33:28.175Z,5.00
2023-02-01T06:34:30.251Z,5.00
2023-02-01T06:35:31.999Z,5.00
2023-02-01T06:36:33.786Z,5.00
2023-02-01T06:37:38.283Z,5.00
2023-02-01T06:38:40.534Z,5.00
2023-02-01T06:39:42.282Z,5.00
2023-02-01T06:40:44.654Z,5.00
2023-02-01T06:41:49.998Z,5.00
2023-02-01T06:42:51.740Z,5.00
2023-02-01T06:43:53.497Z,5.00
2023-02-01T06:44:55.524Z,5.00
2023-02-01T06:46:02.614Z,5.00
2023-02-01T06:47:07.372Z,5.00
2023-02-01T06:48:10.789Z,5.00
2023-02-01T06:49:12.545Z,5.00
2023-02-01T06:50:14.378Z,5.00
2023-02-01T06:51:26.958Z,5.00
2023-02-01T06:52:28.688Z,5.00
2023-02-01T06:53:30.621Z,5.00
2023-02-01T06:54:34.585Z,5.00
2023-02-01T06:55:36.422Z,5.00
2023-02-01T06:56:38.199Z,5.00
2023-02-01T06:57:40.044Z,5.00
2023-02-01T06:58:41.818Z,5.00
2023-02-01T06:59:43.592Z,5.00
2023-02-01T07:00:45.404Z,5.00
2023-02-01T07:01:47.245Z,5.00
2023-02-01T07:02:49.017Z,5.00
2023-02-01T07:03:54.400Z,5.00
2023-02-01T07:04:56.177Z,5.00
2023-02-01T07:06:01.595Z,5.00
2023-02-01T07:07:03.395Z,4.90
2023-02-01T07:08:05.357Z,4.90
2023-02-01T07:09:07.840Z,4.90
2023-02-01T07:10:11.125Z,4.90
2023-02-01T07:11:14.480Z,4.90
2023-02-01T07:12:17.077Z,4.90
2023-02-01T07:13:18.813Z,4.90
2023-02-01T07:14:20.539Z,4.90
2023-02-01T07:15:25.059Z,4.90
2023-02-01T07:16:27.405Z,4.90
2023-02-01T07:17:30.313Z,4.90
2023-02-01T07:18:32.735Z,4.80
2023-02-01T07:19:34.522Z,4.80
2023-02-01T07:20:36.372Z,4.80
2023-02-01T07:21:38.191Z,4.80
2023-02-01T07:22:39.918Z,4.80
2023-02-01T07:23:41.778Z,4.70
2023-02-01T07:24:43.556Z,4.70
2023-02-01T07:25:45.326Z,4.60
2023-02-01T07:26:48.813Z,4.60
2023-02-01T07:27:50.633Z,4.50
2023-02-01T07:28:52.947Z,4.50
2023-02-01T07:29:56.583Z,4.40
2023-02-01T07:31:22.731Z,4.40
2023-02-01T07:32:24.568Z,4.40
2023-02-01T07:33:28.210Z,4.30
2023-02-01T07:34:31.794Z,4.30
2023-02-01T07:35:33.584Z,4.30
2023-02-01T07:36:37.204Z,4.30
2023-02-01T07:37:38.996Z,4.20
2023-02-01T07:38:41.058Z,4.20
2023-02-01T07:39:42.909Z,4.20
2023-02-01T07:40:45.030Z,4.20
2023-02-01T07:41:47.140Z,4.20
2023-02-01T07:42:49.603Z,4.20
2023-02-01T07:43:54.211Z,4.20
2023-02-01T07:44:55.957Z,4.30
2023-02-01T07:45:58.270Z,4.30
2023-02-01T07:47:00.027Z,4.30
2023-02-01T07:48:02.239Z,4.30
2023-02-01T07:49:04.050Z,4.30
2023-02-01T07:50:06.040Z,4.40
2023-02-01T07:51:12.269Z,4.40
2023-02-01T07:52:16.704Z,4.40
2023-02-01T07:53:18.415Z,4.40
2023-02-01T07:54:20.194Z,4.40
2023-02-01T07:55:22.352Z,4.40
2023-02-01T07:56:24.719Z,4.40
2023-02-01T07:57:26.529Z,4.40
2023-02-01T07:58:29.242Z,4.40
2023-02-01T07:59:31.031Z,4.40
2023-02-01T08:00:51.835Z,4.40
2023-02-01T08:01:53.654Z,4.50
2023-02-01T08:02:55.422Z,4.50
2023-02-01T08:04:00.300Z,4.50
2023-02-01T08:05:02.096Z,4.50
2023-02-01T08:06:04.483Z,4.50
2023-02-01T08:07:06.214Z,4.50
2023-02-01T08:08:08.070Z,4.50
2023-02-01T08:09:11.382Z,4.50
2023-02-01T08:10:13.930Z,4.50
2023-02-01T08:11:16.615Z,4.50
2023-02-01T08:12:18.493Z,4.50
2023-02-01T08:13:20.249Z,4.50
2023-02-01T08:14:22.002Z,4.50
2023-02-01T08:15:23.744Z,4.50
2023-02-01T08:16:26.141Z,4.50
2023-02-01T08:17:29.382Z,4.50
2023-02-01T08:18:32.698Z,4.50
2023-02-01T08:19:34.884Z,4.50
2023-02-01T08:20:37.163Z,4.50
2023-02-01T08:21:39.057Z,4.50
2023-02-01T08:22:40.939Z,4.40
2023-02-01T08:23:43.799Z,4.40
2023-02-01T08:24:48.755Z,4.40
2023-02-01T08:25:50.527Z,4.40
2023-02-01T08:26:52.300Z,4.40
2023-02-01T08:27:55.926Z,4.40
2023-02-01T08:29:00.600Z,4.40
2023-02-01T08:30:02.704Z,4.40
2023-02-01T08:31:18.275Z,4.50
2023-02-01T08:32:20.062Z,4.50
2023-02-01T08:33:21.843Z,4.50
2023-02-01T08:34:24.029Z,4.50
2023-02-01T08:35:37.941Z,4.50
2023-02-01T08:36:44.389Z,4.60
2023-02-01T08:37:46.275Z,4.60
2023-02-01T08:38:48.336Z,4.60
2023-02-01T08:39:51.600Z,4.60
2023-02-01T08:40:53.315Z,4.70
2023-02-01T08:42:13.444Z,4.70
2023-02-01T08:43:15.369Z,4.70
2023-02-01T08:44:17.169Z,4.80
2023-02-01T08:45:21.498Z,4.80
2023-02-01T08:46:24.286Z,4.80
2023-02-01T08:47:26.208Z,4.90
2023-02-01T08:48:28.044Z,4.90
2023-02-01T08:49:29.934Z,4.90
2023-02-01T08:50:31.705Z,4.90
2023-02-01T08:51:33.484Z,4.90
2023-02-01T08:52:37.840Z,5.00
2023-02-01T08:53:44.019Z,5.00
2023-02-01T08:54:45.803Z,5.10
2023-02-01T08:55:48.116Z,5.10
2023-02-01T08:56:50.489Z,5.10
2023-02-01T08:57:52.259Z,5.20
2023-02-01T08:58:54.029Z,5.20
2023-02-01T08:59:55.793Z,5.20
2023-02-01T09:00:57.689Z,5.20
2023-02-01T09:01:59.514Z,5.20
2023-02-01T09:03:01.287Z,5.30
2023-02-01T09:04:03.020Z,5.20
2023-02-01T09:05:05.671Z,5.30
2023-02-01T09:06:13.058Z,5.30
2023-02-01T09:07:15.104Z,5.30
2023-02-01T09:08:17.242Z,5.20
2023-02-01T09:09:19.005Z,5.30
2023-02-01T09:10:33.540Z,5.30
2023-02-01T09:11:36.589Z,5.20
2023-02-01T09:12:38.750Z,5.30
2023-02-01T09:13:40.541Z,5.30
2023-02-01T09:14:42.352Z,5.30
2023-02-01T09:15:44.128Z,5.30
2023-02-01T09:16:45.924Z,5.30
2023-02-01T09:17:47.717Z,5.30
2023-02-01T09:18:56.270Z,5.30
2023-02-01T09:20:04.596Z,5.30
2023-02-01T09:21:09.256Z,5.20
2023-02-01T09:22:11.059Z,5.20
2023-02-01T09:23:12.857Z,5.20
2023-02-01T09:24:14.988Z,5.20
2023-02-01T09:25:16.916Z,5.20
2023-02-01T09:26:19.823Z,5.20
2023-02-01T09:27:24.811Z,5.20
2023-02-01T09:28:26.589Z,5.10
2023-02-01T09:29:28.495Z,5.00
2023-02-01T09:30:31.329Z,5.00
2023-02-01T09:31:33.392Z,5.00
2023-02-01T09:32:35.237Z,5.00
2023-02-01T09:33:37.137Z,5.00
2023-02-01T09:34:38.930Z,4.90
2023-02-01T09:35:40.664Z,4.90
2023-02-01T09:36:42.468Z,4.90
2023-02-01T09:37:44.244Z,4.90
2023-02-01T09:38:52.880Z,4.90
2023-02-01T09:39:55.012Z,4.90
2023-02-01T09:40:57.114Z,4.90
2023-02-01T09:42:04.626Z,4.80
2023-02-01T09:43:12.290Z,4.80
2023-02-01T09:44:17.985Z,4.80
2023-02-01T09:45:35.037Z,4.70
2023-02-01T09:46:37.203Z,4.70
2023-02-01T09:47:46.189Z,4.60
2023-02-01T09:48:48.936Z,4.50
2023-02-01T09:50:06.007Z,4.40
2023-02-01T09:51:16.663Z,4.40
2023-02-01T09:52:30.458Z,4.20
2023-02-01T09:53:41.304Z,4.10
2023-02-01T09:55:10.447Z,4.10
2023-02-01T09:56:25.976Z,4.00
2023-02-01T09:57:45.229Z,4.00
2023-02-01T09:58:53.052Z,3.90
2023-02-01T10:00:08.767Z,3.80
2023-02-01T10:01:19.156Z,3.80
2023-02-01T10:02:25.087Z,3.70
2023-02-01T10:03:30.565Z,3.70
2023-02-01T10:04:34.434Z,3.70
2023-02-01T10:06:14.502Z,3.70
2023-02-01T10:07:24.892Z,3.70
2023-02-01T10:08:38.559Z,3.70
2023-02-01T10:10:09.653Z,3.70
2023-02-01T10:12:01.916Z,3.70
2023-02-01T10:13:51.884Z,3.70
2023-02-01T10:15:00.041Z,3.70
2023-02-01T10:16:08.242Z,3.70
2023-02-01T10:17:31.477Z,3.70
2023-02-01T10:18:39.418Z,3.70
2023-02-01T10:19:57.191Z,3.70
2023-02-01T10:21:13.869Z,3.80
2023-02-01T10:23:10.283Z,3.80
2023-02-01T10:24:17.958Z,3.80
2023-02-01T10:25:39.245Z,3.80
2023-02-01T10:26:46.942Z,3.80
2023-02-01T10:27:49.911Z,3.80
2023-02-01T10:28:54.744Z,3.80
2023-02-01T10:30:01.589Z,3.90
2023-02-01T10:31:04.241Z,3.90
2023-02-01T10:32:15.104Z,3.90
2023-02-01T10:33:18.960Z,3.90
2023-02-01T10:34:23.788Z,3.90
2023-02-01T10:35:32.114Z,3.90
2023-02-01T10:36:37.241Z,4.00
2023-02-01T10:37:41.911Z,4.00
2023-02-01T10:38:44.505Z,4.10
2023-02-01T10:39:50.740Z,4.10
2023-02-01T10:40:56.227Z,4.10
2023-02-01T10:41:58.224Z,4.10
2023-02-01T10:43:04.025Z,4.20
2023-02-01T10:44:12.831Z,4.20
2023-02-01T10:45:18.696Z,4.20
2023-02-01T10:46:21.001Z,4.20
2023-02-01T10:47:22.801Z,4.30
2023-02-01T10:48:24.762Z,4.30
2023-02-01T10:49:44.048Z,4.30
2023-02-01T10:50:56.236Z,4.40
2023-02-01T10:52:19.522Z,4.40
2023-02-01T10:53:26.466Z,4.50
2023-02-01T10:54:38.979Z,4.50
2023-02-01T10:55:42.463Z,4.60
2023-02-01T10:56:48.342Z,4.60
2023-02-01T10:58:01.153Z,4.60
2023-02-01T10:59:05.771Z,4.70
2023-02-01T11:00:26.196Z,4.70
2023-02-01T11:01:42.566Z,4.70
2023-02-01T11:02:46.046Z,4.80
2023-02-01T11:03:55.632Z,4.80
2023-02-01T11:05:04.324Z,4.80
2023-02-01T11:06:17.676Z,4.80
2023-02-01T11:07:26.771Z,4.80
2023-02-01T11:08:28.784Z,4.80
2023-02-01T11:09:31.106Z,4.80
2023-02-01T11:10:43.555Z,4.80
2023-02-01T11:11:48.252Z,4.90
2023-02-01T11:12:55.775Z,4.90
2023-02-01T11:14:00.279Z,4.90
2023-02-01T11:15:34.136Z,5.00
2023-02-01T11:16:39.739Z,5.00
2023-02-01T11:17:44.962Z,5.00
2023-02-01T11:18:53.542Z,5.00
2023-02-01T11:20:02.261Z,5.00
2023-02-01T11:21:08.885Z,5.10
2023-02-01T11:22:12.917Z,5.10
2023-02-01T11:23:17.509Z,5.10
2023-02-01T11:24:29.625Z,5.10
2023-02-01T11:25:33.495Z,5.10
2023-02-01T11:26:40.463Z,5.20
2023-02-01T11:27:53.146Z,5.20
2023-02-01T11:29:05.322Z,5.20
2023-02-01T11:30:07.624Z,5.20
2023-02-01T11:31:13.147Z,5.30
2023-02-01T11:32:17.793Z,5.30
2023-02-01T11:33:21.825Z,5.30
2023-02-01T11:34:27.666Z,5.40
2023-02-01T11:35:30.792Z,5.40
2023-02-01T11:36:34.813Z,5.40
2023-02-01T11:37:42.912Z,5.40
2023-02-01T11:38:53.383Z,5.40
2023-02-01T11:40:00.264Z,5.40
2023-02-01T11:41:21.283Z,5.30
2023-02-01T11:42:23.114Z,5.40
2023-02-01T11:43:28.291Z,5.40
2023-02-01T11:44:39.336Z,5.40
2023-02-01T11:45:41.147Z,5.40
2023-02-01T11:46:43.049Z,5.40
2023-02-01T11:47:46.896Z,5.40
2023-02-01T11:48:48.623Z,5.40
2023-02-01T11:49:53.063Z,5.50
2023-02-01T11:51:13.266Z,5.50
2023-02-01T11:52:45.688Z,5.50
2023-02-01T11:53:56.455Z,5.50
2023-02-01T11:55:13.684Z,5.40
2023-02-01T11:56:33.645Z,5.40
2023-02-01T11:58:04.132Z,5.40
2023-02-01T11:59:13.317Z,5.40
2023-02-01T12:00:59.192Z,5.30
2023-02-01T12:02:31.764Z,5.30
2023-02-01T12:03:58.246Z,5.30
2023-02-01T12:05:09.524Z,5.30
2023-02-01T12:06:32.962Z,5.40
2023-02-01T12:07:59.157Z,5.40
2023-02-01T12:09:36.718Z,5.40
2023-02-01T12:11:03.944Z,5.50
2023-02-01T12:12:34.674Z,5.50
2023-02-01T12:14:06.997Z,5.50
2023-02-01T12:15:11.461Z,5.60
2023-02-01T12:16:19.409Z,5.60
2023-02-01T12:17:47.361Z,5.60
2023-02-01T12:18:52.041Z,5.60
2023-02-01T12:20:24.722Z,5.60
2023-02-01T12:21:37.899Z,5.60
2023-02-01T12:23:05.652Z,5.60
2023-02-01T12:24:07.361Z,5.60
2023-02-01T12:25:45.321Z,5.60
2023-02-01T12:26:57.798Z,5.60
2023-02-01T12:28:14.627Z,5.60
2023-02-01T12:29:25.657Z,5.60
2023-02-01T12:30:42.478Z,5.60
2023-02-01T12:32:02.884Z,5.70
2023-02-01T12:33:22.578Z,5.70
2023-02-01T12:34:45.144Z,5.70
2023-02-01T12:36:08.279Z,5.70
2023-02-01T12:37:21.889Z,5.70
2023-02-01T12:38:46.517Z,5.70
2023-02-01T12:40:26.068Z,5.70
2023-02-01T12:41:37.834Z,5.80
2023-02-01T12:42:52.673Z,5.80
2023-02-01T12:44:12.186Z,5.80
2023-02-01T12:45:31.334Z,5.80
2023-02-01T12:46:44.538Z,5.80
2023-02-01T12:47:56.442Z,5.80
2023-02-01T12:49:01.543Z,5.80
2023-02-01T12:50:03.245Z,5.80
2023-02-01T12:51:17.259Z,5.80
2023-02-01T12:52:36.451Z,5.80
2023-02-01T12:53:51.242Z,5.80
2023-02-01T12:55:18.088Z,5.80
2023-02-01T12:56:33.528Z,5.90
2023-02-01T12:57:41.473Z,5.90
2023-02-01T12:58:48.819Z,5.90
2023-02-01T12:59:53.850Z,5.90
2023-02-01T13:01:10.656Z,5.90
2023-02-01T13:02:26.722Z,6.00
2023-02-01T13:03:53.387Z,5.90
2023-02-01T13:05:07.509Z,6.00
2023-02-01T13:06:16.879Z,5.90
2023-02-01T13:07:23.566Z,6.00
2023-02-01T13:08:31.757Z,5.90
2023-02-01T13:09:56.825Z,6.00
2023-02-01T13:11:07.310Z,6.00
2023-02-01T13:12:18.699Z,6.00
2023-02-01T13:13:23.289Z,6.00
2023-02-01T13:14:28.126Z,6.00
2023-02-01T13:15:34.283Z,6.00
2023-02-01T13:16:44.151Z,6.00
2023-02-01T13:17:48.507Z,6.10
2023-02-01T13:18:53.622Z,6.10
2023-02-01T13:20:16.195Z,6.10
2023-02-01T13:21:25.659Z,6.10
2023-02-01T13:22:34.070Z,6.10
2023-02-01T13:23:39.244Z,6.10
2023-02-01T13:24:49.397Z,6.10
2023-02-01T13:25:53.570Z,6.10
2023-02-01T13:26:56.689Z,6.10
2023-02-01T13:28:12.560Z,6.10
2023-02-01T13:29:14.661Z,6.10
2023-02-01T13:30:35.361Z,6.10
2023-02-01T13:31:58.817Z,6.20
2023-02-01T13:33:53.108Z,6.20
2023-02-01T13:35:06.638Z,6.20
2023-02-01T13:36:24.759Z,6.20
2023-02-01T13:37:55.883Z,6.20
2023-02-01T13:39:15.948Z,6.20
2023-02-01T13:40:53.184Z,6.30
2023-02-01T13:42:12.863Z,6.30
2023-02-01T13:43:33.614Z,6.30
2023-02-01T13:44:43.864Z,6.30
2023-02-01T13:45:53.150Z,6.20
2023-02-01T13:46:58.437Z,6.30
2023-02-01T13:48:04.843Z,6.30
2023-02-01T13:49:06.686Z,6.30
2023-02-01T13:50:28.678Z,6.30
2023-02-01T13:51:38.779Z,6.30
2023-02-01T13:53:02.245Z,6.30
2023-02-01T13:54:05.881Z,6.30
2023-02-01T13:55:23.392Z,6.30
2023-02-01T13:56:27.097Z,6.30
2023-02-01T13:57:40.260Z,6.30
2023-02-01T13:58:44.423Z,6.30
2023-02-01T13:59:46.130Z,6.30
2023-02-01T14:00:54.288Z,6.30
2023-02-01T14:01:56.064Z,6.30
2023-02-01T14:03:00.519Z,6.30
2023-02-01T14:04:06.659Z,6.30
2023-02-01T14:05:32.807Z,6.30
2023-02-01T14:06:45.304Z,6.30
2023-02-01T14:08:08.678Z,6.30
2023-02-01T14:09:39.989Z,6.30
2023-02-01T14:10:53.418Z,6.30
2023-02-01T14:11:58.916Z,6.30
2023-02-01T14:13:33.829Z,6.30
2023-02-01T14:14:35.504Z,6.30
2023-02-01T14:15:37.647Z,6.40
2023-02-01T14:16:39.403Z,6.40
2023-02-01T14:17:41.417Z,6.30
2023-02-01T14:18:45.329Z,6.40
2023-02-01T14:19:47.089Z,6.40
2023-02-01T14:20:54.145Z,6.40
2023-02-01T14:22:00.031Z,6.40
2023-02-01T14:23:04.331Z,6.40
2023-02-01T14:24:23.463Z,6.40
2023-02-01T14:25:25.795Z,6.40
2023-02-01T14:26:48.605Z,6.40
2023-02-01T14:27:50.401Z,6.40
2023-02-01T14:28:54.503Z,6.40
2023-02-01T14:30:08.075Z,6.40
2023-02-01T14:31:24.284Z,6.40
2023-02-01T14:32:28.003Z,6.40
2023-02-01T14:33:29.970Z,6.40
2023-02-01T14:34:52.187Z,6.40
2023-02-01T14:36:21.473Z,6.40
2023-02-01T14:37:23.307Z,6.30
2023-02-01T14:38:25.160Z,6.30
2023-02-01T14:39:35.650Z,6.30
2023-02-01T14:40:37.443Z,6.30
2023-02-01T14:41:43.139Z,6.30
2023-02-01T14:42:47.661Z,6.30
2023-02-01T14:44:04.659Z,6.20
2023-02-01T14:45:24.982Z,6.30
2023-02-01T14:47:05.661Z,6.30
2023-02-01T14:48:07.456Z,6.30
2023-02-01T14:49:10.685Z,6.20
2023-02-01T14:50:28.829Z,6.20
2023-02-01T14:51:32.441Z,6.20
2023-02-01T14:52:43.203Z,6.20
2023-02-01T14:53:47.627Z,6.20
2023-02-01T14:54:58.227Z,6.20
2023-02-01T14:56:05.781Z,6.20
2023-02-01T14:57:22.207Z,6.20
2023-02-01T14:58:45.223Z,6.20
2023-02-01T14:59:47.471Z,6.10
2023-02-01T15:00:53.719Z,6.10